Time;durP1;ratioP1;P1;durP2;ratioP2;P2;SDS_P1;SDS_P2;PMS_P1;PMS_P2;Temp;Humidity;BMP_temperature;BMP_pressure;BME280_temperature;BME280_humidity;BME280_pressure;Samples;Min_cycle;Max_cycle;Signal;HPM_P1;HPM_P2
2021/07/20 00:05:13;;;;;;;;;13.75;13.00;;;;;;;;8749448;40;10410;-58
2021/07/20 00:11:16;;;;;;;;;15.75;12.75;;;;;;;;8749394;40;10506;-58
2021/07/20 00:17:22;;;;;;;;;19.00;12.50;;;;;;;;8739957;40;10478;-59
2021/07/20 00:23:24;;;;;;;;;15.75;15.75;;;;;;;;8748873;40;10612;-59
2021/07/20 00:29:26;;;;;;;;;15.00;15.00;;;;;;;;8750555;40;10534;-58
2021/07/20 00:35:28;;;;;;;;;16.00;15.50;;;;;;;;8748857;40;10464;-58
2021/07/20 00:41:30;;;;;;;;;13.50;13.50;;;;;;;;8739361;40;10478;-58
2021/07/20 00:47:33;;;;;;;;;20.75;16.00;;;;;;;;8747937;40;10558;-58
2021/07/20 00:53:36;;;;;;;;;16.75;16.75;;;;;;;;8747573;40;12234;-59
2021/07/20 00:59:43;;;;;;;;;17.75;16.50;;;;;;;;8740555;40;10863;-57
2021/07/20 01:05:45;;;;;;;;;13.25;13.25;;;;;;;;8749680;40;10756;-59
2021/07/20 01:11:50;;;;;;;;;15.75;13.00;;;;;;;;8748754;40;10505;-58
2021/07/20 01:17:55;;;;;;;;;23.50;21.00;;;;;;;;8748200;40;10684;-58
2021/07/20 01:23:58;;;;;;;;;17.25;15.00;;;;;;;;8739452;40;10884;-58
2021/07/20 01:30:02;;;;;;;;;15.25;14.00;;;;;;;;8748838;40;10718;-59
2021/07/20 01:36:08;;;;;;;;;14.25;14.25;;;;;;;;8739026;40;11323;-58
2021/07/20 01:42:15;;;;;;;;;14.00;14.00;;;;;;;;8749022;40;10463;-58
2021/07/20 01:48:20;;;;;;;;;11.75;11.75;;;;;;;;8747456;40;11370;-59
2021/07/20 01:54:22;;;;;;;;;17.50;14.75;;;;;;;;8747375;40;10696;-58
2021/07/20 02:00:26;;;;;;;;;19.00;17.50;;;;;;;;8739458;40;11280;-59
2021/07/20 02:13:13;;;;;;;;;14.75;13.25;;;;;;;;8747328;40;10780;-58
2021/07/20 02:19:46;;;;;;;;;16.75;16.75;;;;;;;;8743788;40;11357;-58
2021/07/20 02:25:55;;;;;;;;;21.50;14.25;;;;;;;;8738963;40;10863;-58
2021/07/20 02:32:04;;;;;;;;;11.50;10.25;;;;;;;;8737981;40;10803;-57
2021/07/20 02:38:07;;;;;;;;;20.25;17.00;;;;;;;;8746571;40;10825;-58
2021/07/20 02:44:11;;;;;;;;;18.25;17.25;;;;;;;;8745138;40;11319;-58
2021/07/20 02:50:15;;;;;;;;;14.25;13.75;;;;;;;;8747454;40;11140;-59
2021/07/20 02:56:22;;;;;;;;;16.00;15.50;;;;;;;;8738815;40;10948;-58
2021/07/20 03:02:35;;;;;;;;;16.25;16.25;;;;;;;;8745187;40;11149;-58
2021/07/20 03:08:38;;;;;;;;;22.75;19.25;;;;;;;;8747359;40;10979;-59
2021/07/20 03:14:57;;;;;;;;;20.75;16.50;;;;;;;;8744791;40;11076;-58
2021/07/20 03:21:22;;;;;;;;;22.00;19.25;;;;;;;;8746175;40;11033;-58
2021/07/20 03:27:31;;;;;;;;;17.50;16.00;;;;;;;;8745430;40;10721;-58
2021/07/20 03:33:38;;;;;;;;;20.00;17.25;;;;;;;;8746501;40;11035;-58
2021/07/20 03:40:04;;;;;;;;;19.50;17.50;;;;;;;;8746201;40;10903;-58
2021/07/20 03:46:09;;;;;;;;;14.75;13.75;;;;;;;;8746444;40;10802;-58
2021/07/20 03:52:14;;;;;;;;;18.50;17.75;;;;;;;;8738501;40;11283;-59
2021/07/20 03:58:18;;;;;;;;;20.00;17.00;;;;;;;;8735424;40;10882;-58
2021/07/20 04:04:21;;;;;;;;;14.75;14.50;;;;;;;;9818511;23;10687;-59
2021/07/20 04:10:41;;;;;;;;;20.75;18.75;;;;;;;;8788530;40;10671;-61
2021/07/20 04:16:56;;;;;;;;;15.75;15.00;;;;;;;;8791175;40;10750;-59
2021/07/20 04:22:58;;;;;;;;;20.25;19.00;;;;;;;;8798728;40;10740;-60
2021/07/20 04:29:05;;;;;;;;;18.50;17.25;;;;;;;;8790636;40;10724;-60
2021/07/20 04:35:13;;;;;;;;;17.00;17.00;;;;;;;;8798799;40;10514;-59
2021/07/20 04:41:22;;;;;;;;;22.75;19.75;;;;;;;;8790491;40;11101;-58
2021/07/20 04:47:24;;;;;;;;;23.00;20.25;;;;;;;;8799137;40;10838;-59
2021/07/20 04:53:36;;;;;;;;;19.75;18.75;;;;;;;;8798230;40;10577;-60
2021/07/20 04:59:39;;;;;;;;;24.25;19.75;;;;;;;;8799294;40;10568;-59
2021/07/20 05:05:44;;;;;;;;;24.75;22.50;;;;;;;;8798696;40;10759;-60
2021/07/20 05:11:49;;;;;;;;;20.75;18.25;;;;;;;;8799060;40;10663;-61
2021/07/20 05:17:53;;;;;;;;;20.25;18.25;;;;;;;;8798948;40;10621;-60
2021/07/20 05:23:57;;;;;;;;;20.00;20.00;;;;;;;;8788868;40;10640;-59
2021/07/20 05:30:18;;;;;;;;;21.00;21.00;;;;;;;;8789000;40;10629;-59
2021/07/20 05:36:20;;;;;;;;;26.00;24.00;;;;;;;;8797979;40;10609;-59
2021/07/20 05:42:23;;;;;;;;;19.75;19.75;;;;;;;;8776545;40;10539;-58
2021/07/20 05:48:27;;;;;;;;;17.75;17.25;;;;;;;;8787105;40;10616;-58
2021/07/20 05:54:33;;;;;;;;;24.50;23.00;;;;;;;;8788634;40;11057;-59
2021/07/20 06:00:43;;;;;;;;;21.00;21.00;;;;;;;;8795939;40;11081;-59
2021/07/20 06:06:49;;;;;;;;;24.50;21.75;;;;;;;;8770689;40;10752;-58
2021/07/20 06:12:52;;;;;;;;;22.75;22.00;;;;;;;;8794138;40;10598;-59
2021/07/20 06:18:55;;;;;;;;;28.50;25.50;;;;;;;;8774822;40;11025;-58
2021/07/20 06:25:00;;;;;;;;;28.00;24.75;;;;;;;;8792325;40;10584;-57
2021/07/20 06:31:03;;;;;;;;;30.50;28.75;;;;;;;;8786484;40;11170;-59
2021/07/20 06:37:06;;;;;;;;;36.75;34.50;;;;;;;;8783286;40;10631;-59
2021/07/20 06:43:11;;;;;;;;;29.25;27.50;;;;;;;;8792825;40;10810;-59
2021/07/20 06:49:14;;;;;;;;;35.50;31.25;;;;;;;;8802947;40;10569;-59
2021/07/20 06:55:20;;;;;;;;;28.25;24.75;;;;;;;;8806380;40;11373;-60
2021/07/20 07:01:27;;;;;;;;;28.75;28.00;;;;;;;;8815624;40;10860;-59
2021/07/20 07:07:31;;;;;;;;;28.50;28.00;;;;;;;;8760619;40;10763;-58
2021/07/20 07:13:35;;;;;;;;;27.75;26.50;;;;;;;;8757564;40;10651;-57
2021/07/20 07:19:39;;;;;;;;;30.00;28.25;;;;;;;;8754617;40;11084;-59
2021/07/20 07:25:41;;;;;;;;;34.00;29.50;;;;;;;;8746462;40;11084;-58
2021/07/20 07:31:45;;;;;;;;;34.50;34.25;;;;;;;;8757428;40;10626;-56
2021/07/20 07:37:49;;;;;;;;;30.75;29.00;;;;;;;;8757998;40;10663;-58
2021/07/20 07:43:54;;;;;;;;;38.50;33.75;;;;;;;;8768464;40;10623;-59
2021/07/20 07:49:56;;;;;;;;;36.50;31.00;;;;;;;;8767669;40;10762;-58
2021/07/20 07:55:58;;;;;;;;;35.00;32.25;;;;;;;;8765215;40;10505;-58
2021/07/20 08:05:24;;;;;;;;;37.25;34.00;;;;;;;;8869856;39;1494666;-58
2021/07/20 08:11:29;;;;;;;;;41.50;37.00;;;;;;;;8936038;39;10678;-58
2021/07/20 08:17:33;;;;;;;;;33.25;30.25;;;;;;;;8959558;39;10302;-58
2021/07/20 08:23:36;;;;;;;;;41.50;37.25;;;;;;;;8954917;39;10519;-58
2021/07/20 08:29:40;;;;;;;;;37.25;35.50;;;;;;;;8951449;39;10611;-58
2021/07/20 08:35:44;;;;;;;;;49.50;38.50;;;;;;;;8944439;39;10464;-58
2021/07/20 08:42:39;;;;;;;;;32.75;29.00;;;;;;;;8934500;39;10678;-58
2021/07/20 08:49:15;;;;;;;;;36.50;34.50;;;;;;;;8905409;39;10468;-60
2021/07/20 08:55:21;;;;;;;;;44.00;37.75;;;;;;;;8934031;39;10610;-58
2021/07/20 09:01:33;;;;;;;;;42.75;36.75;;;;;;;;8951077;39;10333;-58
2021/07/20 09:07:51;;;;;;;;;53.25;43.00;;;;;;;;8960027;39;10395;-58
2021/07/20 09:14:26;;;;;;;;;41.75;37.50;;;;;;;;8935094;39;10389;-59
2021/07/20 09:20:39;;;;;;;;;45.25;40.25;;;;;;;;8930173;39;10466;-59
2021/07/20 09:26:55;;;;;;;;;40.25;39.00;;;;;;;;8912257;40;10542;-58
2021/07/20 09:33:15;;;;;;;;;35.00;34.25;;;;;;;;8916589;39;10571;-57
2021/07/20 09:39:33;;;;;;;;;45.00;38.25;;;;;;;;8917119;39;10590;-58
2021/07/20 09:45:41;;;;;;;;;44.75;39.75;;;;;;;;8918146;39;10405;-59
2021/07/20 09:52:19;;;;;;;;;42.00;38.50;;;;;;;;8920664;39;10378;-57
2021/07/20 09:58:35;;;;;;;;;36.00;34.25;;;;;;;;8927730;39;10448;-56
2021/07/20 10:04:50;;;;;;;;;44.00;38.25;;;;;;;;8940677;39;10422;-58
2021/07/20 10:11:06;;;;;;;;;39.50;36.25;;;;;;;;8926588;39;10383;-59
2021/07/20 10:17:39;;;;;;;;;44.25;40.00;;;;;;;;8915278;39;10461;-58
2021/07/20 10:24:00;;;;;;;;;35.50;35.50;;;;;;;;8913695;39;10609;-58
2021/07/20 10:30:10;;;;;;;;;33.50;31.25;;;;;;;;8913893;39;10509;-59
2021/07/20 10:36:44;;;;;;;;;37.00;33.75;;;;;;;;8909579;39;10694;-59
2021/07/20 10:43:08;;;;;;;;;33.75;31.00;;;;;;;;8917598;39;10460;-60
2021/07/20 10:49:54;;;;;;;;;33.75;33.25;;;;;;;;8940634;39;10606;-59
2021/07/20 10:56:17;;;;;;;;;35.75;32.25;;;;;;;;8918076;39;10530;-58
2021/07/20 11:02:52;;;;;;;;;34.50;30.25;;;;;;;;8916531;39;11162;-60
2021/07/20 11:08:59;;;;;;;;;34.50;33.75;;;;;;;;8899318;39;10482;-60
2021/07/20 11:15:02;;;;;;;;;36.25;33.50;;;;;;;;8910367;39;10472;-60
2021/07/20 11:21:07;;;;;;;;;35.75;33.00;;;;;;;;8905344;40;10617;-59
2021/07/20 11:27:13;;;;;;;;;36.50;33.00;;;;;;;;8915377;39;10643;-58
2021/07/20 11:33:20;;;;;;;;;28.25;26.75;;;;;;;;8917365;39;10611;-58
2021/07/20 11:39:54;;;;;;;;;19.00;18.00;;;;;;;;8914547;39;10469;-59
2021/07/20 11:46:06;;;;;;;;;33.00;32.25;;;;;;;;8915179;39;11063;-58
2021/07/20 11:52:15;;;;;;;;;31.50;30.00;;;;;;;;8916184;39;10513;-58
2021/07/20 11:58:31;;;;;;;;;30.00;29.00;;;;;;;;8916889;39;11317;-57
2021/07/20 12:05:04;;;;;;;;;34.75;31.25;;;;;;;;8916786;40;10490;-59
2021/07/20 12:11:13;;;;;;;;;27.50;25.25;;;;;;;;8915226;39;10452;-59
2021/07/20 12:17:15;;;;;;;;;22.75;21.75;;;;;;;;8914892;40;10670;-58
2021/07/20 12:23:18;;;;;;;;;25.75;25.25;;;;;;;;8916782;40;11356;-59
2021/07/20 12:29:20;;;;;;;;;28.50;27.75;;;;;;;;8916071;39;10441;-59
2021/07/20 12:35:23;;;;;;;;;27.00;27.00;;;;;;;;8916233;39;10459;-60
2021/07/20 12:41:25;;;;;;;;;24.50;24.50;;;;;;;;8915888;40;10617;-59
2021/07/20 12:47:27;;;;;;;;;27.50;25.00;;;;;;;;8916710;39;10436;-59
2021/07/20 12:53:30;;;;;;;;;26.75;26.75;;;;;;;;8917542;40;11112;-60
2021/07/20 12:59:38;;;;;;;;;26.00;24.75;;;;;;;;8917097;39;10362;-58
2021/07/20 13:05:43;;;;;;;;;19.50;19.50;;;;;;;;8917513;39;10426;-59
2021/07/20 13:11:46;;;;;;;;;24.50;20.75;;;;;;;;8917297;40;10407;-59
2021/07/20 13:17:56;;;;;;;;;27.50;27.00;;;;;;;;8918964;40;10584;-59
2021/07/20 13:23:58;;;;;;;;;24.00;22.25;;;;;;;;8920021;40;10601;-58
2021/07/20 13:30:01;;;;;;;;;25.25;24.25;;;;;;;;8921047;39;10368;-57
2021/07/20 13:36:04;;;;;;;;;27.50;26.25;;;;;;;;8915442;39;10461;-60
2021/07/20 13:42:06;;;;;;;;;19.75;18.75;;;;;;;;8899075;39;11041;-59
2021/07/20 13:48:14;;;;;;;;;16.50;16.00;;;;;;;;8897490;40;10453;-59
2021/07/20 13:54:17;;;;;;;;;19.75;19.25;;;;;;;;8903627;40;10633;-59
2021/07/20 14:00:20;;;;;;;;;20.50;18.50;;;;;;;;8896263;40;10608;-59
2021/07/20 14:06:22;;;;;;;;;14.00;13.50;;;;;;;;8896827;40;10288;-59
2021/07/20 14:12:25;;;;;;;;;18.75;18.75;;;;;;;;8911028;40;10425;-58
2021/07/20 14:18:31;;;;;;;;;12.50;12.50;;;;;;;;8921741;40;10616;-59
2021/07/20 14:24:35;;;;;;;;;21.75;17.75;;;;;;;;8922805;40;10415;-58
2021/07/20 14:30:54;;;;;;;;;22.00;19.25;;;;;;;;8921804;40;10373;-59
2021/07/20 14:36:56;;;;;;;;;13.75;13.25;;;;;;;;8921414;40;10448;-59
2021/07/20 14:43:08;;;;;;;;;27.25;24.75;;;;;;;;8920865;39;10403;-60
2021/07/20 14:49:20;;;;;;;;;23.00;21.75;;;;;;;;8911709;40;10907;-58
2021/07/20 14:55:46;;;;;;;;;24.25;24.00;;;;;;;;8922046;39;10314;-59
2021/07/20 15:01:51;;;;;;;;;22.25;19.50;;;;;;;;8921430;39;10464;-59
2021/07/20 15:08:19;;;;;;;;;21.25;20.50;;;;;;;;8921482;39;10367;-60
2021/07/20 15:14:25;;;;;;;;;18.00;16.00;;;;;;;;8920458;39;10450;-60
2021/07/20 15:20:28;;;;;;;;;16.00;16.00;;;;;;;;8920105;39;11019;-60
2021/07/20 15:26:31;;;;;;;;;15.25;14.75;;;;;;;;8919844;39;10572;-59
2021/07/20 15:32:35;;;;;;;;;22.00;22.00;;;;;;;;8919714;39;10440;-59
2021/07/20 15:38:38;;;;;;;;;20.75;20.25;;;;;;;;8920975;39;10418;-60
2021/07/20 15:44:43;;;;;;;;;23.25;20.00;;;;;;;;8918922;40;11872;-60
2021/07/20 15:50:50;;;;;;;;;23.50;23.25;;;;;;;;8916671;40;10557;-58
2021/07/20 15:56:52;;;;;;;;;23.75;23.75;;;;;;;;8918468;39;10393;-60
2021/07/20 16:02:55;;;;;;;;;8.00;7.25;;;;;;;;8910343;39;10502;-61
2021/07/20 16:09:01;;;;;;;;;25.25;25.00;;;;;;;;8894395;40;10949;-62
2021/07/20 16:15:30;;;;;;;;;26.50;26.25;;;;;;;;8895688;40;10475;-60
2021/07/20 16:21:33;;;;;;;;;25.25;25.25;;;;;;;;8902548;40;10412;-60
2021/07/20 16:27:36;;;;;;;;;34.50;33.25;;;;;;;;8899284;40;10563;-60
2021/07/20 16:33:44;;;;;;;;;38.25;34.50;;;;;;;;8897966;40;10485;-60
2021/07/20 16:39:46;;;;;;;;;39.25;35.50;;;;;;;;8899422;40;10367;-60
2021/07/20 16:45:58;;;;;;;;;35.00;34.75;;;;;;;;8897161;40;11063;-61
2021/07/20 16:52:01;;;;;;;;;34.75;30.00;;;;;;;;8899407;40;10533;-61
2021/07/20 16:58:24;;;;;;;;;38.00;33.25;;;;;;;;8898734;40;10429;-61
2021/07/20 17:04:26;;;;;;;;;41.25;38.00;;;;;;;;8899224;40;10419;-59
2021/07/20 17:10:29;;;;;;;;;42.00;37.25;;;;;;;;8898590;40;10693;-61
2021/07/20 17:16:35;;;;;;;;;31.00;31.00;;;;;;;;8897958;40;10424;-60
2021/07/20 17:22:39;;;;;;;;;32.50;31.00;;;;;;;;8898635;40;10452;-61
2021/07/20 17:28:46;;;;;;;;;37.00;35.75;;;;;;;;8898538;40;10361;-61
2021/07/20 17:34:54;;;;;;;;;33.75;32.75;;;;;;;;8897682;40;10426;-62
2021/07/20 17:41:10;;;;;;;;;23.50;21.25;;;;;;;;8897998;40;10411;-59
2021/07/20 17:47:26;;;;;;;;;29.25;25.50;;;;;;;;8898012;40;10436;-61
2021/07/20 17:53:32;;;;;;;;;21.25;20.50;;;;;;;;8897496;40;10428;-60
2021/07/20 17:59:34;;;;;;;;;24.75;23.75;;;;;;;;8897855;40;10450;-60
2021/07/20 18:05:36;;;;;;;;;18.75;17.00;;;;;;;;8897752;40;10412;-59
2021/07/20 18:11:39;;;;;;;;;15.25;15.00;;;;;;;;8897406;40;10427;-60
2021/07/20 18:17:42;;;;;;;;;24.25;24.25;;;;;;;;8896171;40;10684;-60
2021/07/20 18:23:45;;;;;;;;;23.00;21.00;;;;;;;;8897116;40;10838;-60
2021/07/20 18:29:47;;;;;;;;;27.00;23.75;;;;;;;;8896578;40;10417;-61
2021/07/20 18:35:51;;;;;;;;;27.00;24.25;;;;;;;;8897038;40;10993;-60
2021/07/20 18:41:54;;;;;;;;;24.75;24.75;;;;;;;;8896733;40;10598;-61
2021/07/20 18:47:56;;;;;;;;;28.50;25.25;;;;;;;;8897298;40;10388;-60
2021/07/20 18:53:59;;;;;;;;;26.75;25.50;;;;;;;;8896776;40;10568;-60
2021/07/20 19:00:02;;;;;;;;;31.00;25.75;;;;;;;;8896184;40;10502;-61
2021/07/20 19:06:05;;;;;;;;;23.50;20.75;;;;;;;;8897162;40;10667;-60
2021/07/20 19:12:08;;;;;;;;;19.50;19.50;;;;;;;;8895870;40;10463;-60
2021/07/20 19:18:11;;;;;;;;;21.50;20.25;;;;;;;;8903198;40;10361;-59
2021/07/20 19:24:13;;;;;;;;;20.00;18.75;;;;;;;;8897094;40;10367;-59
2021/07/20 19:30:15;;;;;;;;;21.50;18.75;;;;;;;;8896320;40;10447;-60
2021/07/20 19:36:18;;;;;;;;;24.00;22.50;;;;;;;;8904241;40;10648;-59
2021/07/20 19:42:21;;;;;;;;;22.25;19.25;;;;;;;;8895249;40;10636;-61
2021/07/20 19:48:23;;;;;;;;;20.00;20.00;;;;;;;;8895417;40;10432;-60
2021/07/20 19:54:25;;;;;;;;;23.75;22.25;;;;;;;;8895728;40;10588;-61
2021/07/20 20:00:27;;;;;;;;;21.50;21.50;;;;;;;;8895973;40;10646;-60
2021/07/20 20:06:30;;;;;;;;;24.25;23.00;;;;;;;;8895767;40;10444;-60
2021/07/20 20:12:32;;;;;;;;;22.00;19.50;;;;;;;;8896341;40;10556;-60
2021/07/20 20:18:34;;;;;;;;;22.50;20.00;;;;;;;;8894810;40;11876;-61
2021/07/20 20:24:36;;;;;;;;;16.25;16.25;;;;;;;;8893171;40;10591;-60
2021/07/20 20:30:38;;;;;;;;;18.75;17.75;;;;;;;;8893657;40;10502;-60
2021/07/20 20:36:43;;;;;;;;;17.25;17.25;;;;;;;;8894586;40;10511;-61
2021/07/20 20:42:46;;;;;;;;;12.25;11.50;;;;;;;;8899952;40;11304;-59
2021/07/20 20:48:48;;;;;;;;;19.00;16.00;;;;;;;;8892822;40;10585;-60
2021/07/20 20:54:50;;;;;;;;;15.50;14.25;;;;;;;;8892617;40;10440;-60
2021/07/20 21:00:54;;;;;;;;;15.75;15.00;;;;;;;;8891920;40;10552;-60
2021/07/20 21:06:57;;;;;;;;;12.50;10.75;;;;;;;;8893010;40;10690;-60
2021/07/20 21:12:59;;;;;;;;;13.00;12.75;;;;;;;;8896664;40;10511;-60
2021/07/20 21:19:02;;;;;;;;;12.25;12.25;;;;;;;;8896770;40;10906;-59
2021/07/20 21:25:05;;;;;;;;;16.75;15.00;;;;;;;;8896279;40;10779;-60
2021/07/20 21:31:07;;;;;;;;;13.25;12.00;;;;;;;;8896100;40;11740;-60
2021/07/20 21:37:14;;;;;;;;;19.25;18.00;;;;;;;;8896075;40;10704;-60
2021/07/20 21:43:20;;;;;;;;;17.25;17.25;;;;;;;;8902576;40;10659;-60
2021/07/20 21:49:22;;;;;;;;;17.50;17.50;;;;;;;;8897338;40;10665;-59
2021/07/20 21:55:24;;;;;;;;;13.50;13.25;;;;;;;;8896333;40;10730;-59
2021/07/20 22:01:26;;;;;;;;;19.25;19.00;;;;;;;;8895850;40;10775;-59
2021/07/20 22:07:29;;;;;;;;;14.25;14.00;;;;;;;;8897047;40;10816;-59
2021/07/20 22:13:31;;;;;;;;;22.25;19.25;;;;;;;;8894719;40;10809;-60
2021/07/20 22:19:33;;;;;;;;;18.50;14.50;;;;;;;;8895385;40;10777;-59
2021/07/20 22:25:38;;;;;;;;;17.50;17.00;;;;;;;;8894775;40;10780;-59
2021/07/20 22:31:41;;;;;;;;;16.00;16.00;;;;;;;;8895035;40;10783;-59
2021/07/20 22:37:43;;;;;;;;;17.25;16.75;;;;;;;;8894750;40;10702;-59
2021/07/20 22:43:47;;;;;;;;;20.25;19.25;;;;;;;;8894167;40;12248;-60
2021/07/20 22:49:49;;;;;;;;;17.25;17.25;;;;;;;;8894942;40;11408;-59
2021/07/20 22:55:51;;;;;;;;;20.75;18.75;;;;;;;;8893428;40;10784;-60
2021/07/20 23:01:53;;;;;;;;;19.75;18.75;;;;;;;;8894790;40;10737;-59
2021/07/20 23:07:57;;;;;;;;;21.33;17.00;;;;;;;;8894697;40;10702;-60
2021/07/20 23:14:00;;;;;;;;;19.25;18.25;;;;;;;;8894480;40;11155;-59
2021/07/20 23:20:06;;;;;;;;;19.25;18.25;;;;;;;;8895393;40;10859;-60
2021/07/20 23:26:08;;;;;;;;;15.50;15.50;;;;;;;;8894800;40;10899;-60
2021/07/20 23:32:10;;;;;;;;;16.25;15.75;;;;;;;;8894271;40;10903;-60
2021/07/20 23:38:13;;;;;;;;;24.00;19.67;;;;;;;;8895414;40;10550;-60
2021/07/20 23:44:24;;;;;;;;;18.50;16.25;;;;;;;;8894679;40;10734;-60
2021/07/20 23:50:29;;;;;;;;;18.75;18.25;;;;;;;;8895881;40;10828;-60
2021/07/20 23:56:32;;;;;;;;;23.33;18.67;;;;;;;;8893526;40;10557;-58
